Time;durP1;ratioP1;P1;durP2;ratioP2;P2;SDS_P1;SDS_P2;PMS_P1;PMS_P2;Temp;Humidity;BMP_temperature;BMP_pressure;BME280_temperature;BME280_humidity;BME280_pressure;Samples;Min_cycle;Max_cycle;Signal;HPM_P1;HPM_P2
2023/01/05 00:01:09;;;;;;;17.90;4.40;;;9.80;99.90;;;;;;4863319;29;20045;-87
2023/01/05 00:03:35;;;;;;;17.20;4.23;;;9.80;99.90;;;;;;4870160;29;20521;-85
2023/01/05 00:06:12;;;;;;;18.63;4.37;;;9.80;99.90;;;;;;4848497;29;20045;-87
2023/01/05 00:08:41;;;;;;;18.60;4.23;;;9.80;99.90;;;;;;4861739;29;20051;-87
2023/01/05 00:22:30;;;;;;;23.17;5.30;;;9.70;99.90;;;;;;4873289;29;20052;-86
2023/01/05 00:25:08;;;;;;;24.90;5.00;;;9.70;99.90;;;;;;4869291;29;20052;-86
2023/01/05 00:27:34;;;;;;;17.27;4.80;;;9.70;99.90;;;;;;4859150;29;20041;-86
2023/01/05 00:30:00;;;;;;;22.17;5.47;;;9.70;99.90;;;;;;4859904;29;20038;-84
2023/01/05 00:32:27;;;;;;;20.73;4.50;;;9.70;99.90;;;;;;4858354;29;20557;-87
2023/01/05 00:35:00;;;;;;;24.70;5.53;;;9.70;99.90;;;;;;4857836;29;20050;-84
2023/01/05 00:37:34;;;;;;;23.27;5.43;;;9.80;99.90;;;;;;4843274;29;20145;-86
2023/01/05 00:39:59;;;;;;;19.20;4.67;;;9.80;99.90;;;;;;4871981;29;20041;-86
2023/01/05 00:42:26;;;;;;;24.27;6.07;;;9.80;99.90;;;;;;4868806;29;20504;-87
2023/01/05 00:44:52;;;;;;;23.33;5.43;;;9.70;99.90;;;;;;4876672;29;20064;-86
2023/01/05 00:47:17;;;;;;;20.70;5.53;;;9.70;99.90;;;;;;4860750;29;20045;-85
2023/01/05 00:49:43;;;;;;;23.43;5.10;;;9.70;99.90;;;;;;4863863;29;20041;-85
2023/01/05 00:52:09;;;;;;;18.30;5.07;;;9.80;99.90;;;;;;4876829;29;20045;-85
2023/01/05 00:54:35;;;;;;;23.10;5.17;;;9.80;99.90;;;;;;4858043;29;20085;-84
2023/01/05 00:57:01;;;;;;;21.33;4.77;;;9.80;99.90;;;;;;4861778;29;20045;-84
2023/01/05 00:59:27;;;;;;;18.57;4.43;;;9.80;99.90;;;;;;4876390;29;20055;-86
2023/01/05 01:01:53;;;;;;;18.17;4.80;;;9.80;99.90;;;;;;4847171;29;20095;-85
2023/01/05 01:04:20;;;;;;;18.83;4.77;;;9.80;99.90;;;;;;4859128;29;20045;-85
2023/01/05 01:06:46;;;;;;;19.80;4.63;;;9.80;99.90;;;;;;4872500;29;20052;-86
2023/01/05 01:09:13;;;;;;;21.30;5.27;;;9.80;99.90;;;;;;4842945;29;20049;-85
2023/01/05 01:11:39;;;;;;;20.57;4.77;;;9.80;99.90;;;;;;4849233;29;20053;-87
2023/01/05 01:14:06;;;;;;;20.00;5.13;;;9.90;99.90;;;;;;4871524;29;20045;-85
2023/01/05 01:16:33;;;;;;;25.23;4.80;;;9.80;99.90;;;;;;4856973;29;20045;-86
2023/01/05 01:19:06;;;;;;;17.43;3.70;;;9.80;99.90;;;;;;4853514;29;20113;-87
2023/01/05 01:21:32;;;;;;;21.20;4.50;;;9.90;99.90;;;;;;4855677;29;20462;-85
2023/01/05 01:23:57;;;;;;;24.03;5.97;;;9.80;99.90;;;;;;4864109;29;20045;-84
2023/01/05 01:26:23;;;;;;;23.50;4.53;;;9.90;99.90;;;;;;4873193;29;20454;-86
2023/01/05 01:28:49;;;;;;;23.00;4.20;;;9.90;99.90;;;;;;4875348;29;20413;-83
2023/01/05 01:31:17;;;;;;;18.93;4.93;;;9.90;99.90;;;;;;4865264;29;20041;-87
2023/01/05 01:33:43;;;;;;;19.70;4.87;;;9.90;99.90;;;;;;4875009;29;20037;-86
2023/01/05 01:36:09;;;;;;;14.97;4.10;;;9.90;99.90;;;;;;4842555;29;20084;-84
2023/01/05 01:38:35;;;;;;;17.50;4.50;;;10.00;99.90;;;;;;4864982;29;20413;-86
2023/01/05 01:41:01;;;;;;;16.53;4.00;;;10.00;99.90;;;;;;4861905;29;20061;-85
2023/01/05 01:43:44;;;;;;;21.20;4.63;;;10.00;99.90;;;;;;4827516;29;20521;-87
2023/01/05 01:46:11;;;;;;;20.17;4.30;;;10.00;99.90;;;;;;4842825;29;20058;-85
2023/01/05 01:48:40;;;;;;;19.90;4.73;;;9.90;99.90;;;;;;4861186;29;20041;-85
2023/01/05 01:51:13;;;;;;;18.13;4.47;;;10.00;99.90;;;;;;4852684;29;20450;-86
2023/01/05 01:53:47;;;;;;;11.43;4.07;;;10.00;99.90;;;;;;4877255;29;20492;-84
2023/01/05 01:56:17;;;;;;;19.90;4.83;;;10.00;99.90;;;;;;4879474;29;20049;-86
2023/01/05 01:58:43;;;;;;;22.00;4.30;;;9.90;99.90;;;;;;4860663;29;20037;-86
2023/01/05 02:01:10;;;;;;;21.80;4.27;;;9.90;99.90;;;;;;4876759;29;20186;-86
2023/01/05 02:03:36;;;;;;;20.03;4.77;;;10.00;99.90;;;;;;4856555;29;20470;-86
2023/01/05 02:06:02;;;;;;;18.33;4.63;;;10.00;99.90;;;;;;4860510;29;20128;-85
2023/01/05 02:08:31;;;;;;;17.63;4.60;;;10.00;99.90;;;;;;4869960;29;20137;-86
2023/01/05 02:11:24;;;;;;;16.03;4.37;;;10.00;99.90;;;;;;4860874;29;20045;-85
2023/01/05 02:13:59;;;;;;;17.93;4.30;;;10.00;99.90;;;;;;4846973;29;20073;-86
2023/01/05 02:16:52;;;;;;;18.10;4.40;;;10.00;99.90;;;;;;4863921;29;20052;-84
2023/01/05 02:19:48;;;;;;;20.53;4.70;;;10.00;99.90;;;;;;4873759;29;20128;-83
2023/01/05 02:22:26;;;;;;;14.63;4.20;;;10.00;99.90;;;;;;4868795;29;20135;-85
2023/01/05 02:25:13;;;;;;;18.17;4.47;;;10.00;99.90;;;;;;4875914;29;20052;-85
2023/01/05 02:28:14;;;;;;;18.73;4.20;;;10.10;99.90;;;;;;4854023;29;20041;-85
2023/01/05 02:31:10;;;;;;;20.13;4.10;;;10.00;99.90;;;;;;4876058;29;20037;-83
2023/01/05 02:34:21;;;;;;;15.23;4.30;;;10.00;99.90;;;;;;4860698;29;20041;-85
2023/01/05 02:36:54;;;;;;;17.47;3.80;;;10.00;99.90;;;;;;4869848;29;20484;-85
2023/01/05 02:39:28;;;;;;;23.90;4.83;;;10.00;99.90;;;;;;4857205;29;20074;-87
2023/01/05 02:41:58;;;;;;;20.10;5.03;;;10.00;99.90;;;;;;4867972;29;20064;-85
2023/01/05 02:44:28;;;;;;;20.20;4.40;;;10.00;99.90;;;;;;4846628;29;20057;-85
2023/01/05 02:47:04;;;;;;;25.73;5.23;;;10.00;99.90;;;;;;4878876;29;20060;-84
2023/01/05 02:49:37;;;;;;;19.67;4.70;;;10.00;99.90;;;;;;4863586;29;20519;-84
2023/01/05 02:52:05;;;;;;;22.53;4.80;;;10.00;99.90;;;;;;4878689;29;20056;-84
2023/01/05 02:54:40;;;;;;;18.83;4.40;;;10.00;99.90;;;;;;4860710;29;20084;-84
2023/01/05 02:57:11;;;;;;;20.47;4.57;;;10.00;99.90;;;;;;4870215;29;20048;-86
2023/01/05 02:59:46;;;;;;;20.83;4.57;;;10.00;99.90;;;;;;4871391;29;20180;-85
2023/01/05 03:02:18;;;;;;;20.97;4.97;;;9.90;99.90;;;;;;4867499;29;20524;-85
2023/01/05 03:04:52;;;;;;;22.08;5.15;;;9.90;99.90;;;;;;4856081;29;20119;-85
2023/01/05 03:07:25;;;;;;;23.57;5.37;;;9.90;99.90;;;;;;4868131;29;20062;-83
2023/01/05 03:09:51;;;;;;;26.30;5.17;;;9.90;99.90;;;;;;4852654;29;20117;-85
2023/01/05 03:15:24;;;;;;;23.67;4.72;;;9.90;99.90;;;;;;4874653;29;20057;-84
2023/01/05 03:17:54;;;;;;;22.83;5.28;;;9.80;99.90;;;;;;4875576;29;20048;-84
2023/01/05 03:20:23;;;;;;;16.87;4.50;;;9.90;99.90;;;;;;4864367;29;20050;-84
2023/01/05 03:37:54;;;;;;;22.33;5.73;;;9.80;99.90;;;;;;4859542;29;20096;-84
2023/01/05 03:40:39;;;;;;;20.93;4.60;;;9.80;99.90;;;;;;4864719;29;20048;-84
2023/01/05 03:43:06;;;;;;;20.87;4.63;;;9.80;99.90;;;;;;4882007;29;20496;-85
2023/01/05 03:45:44;;;;;;;25.20;5.50;;;9.80;99.90;;;;;;4852493;29;20109;-84
2023/01/05 03:48:10;;;;;;;22.80;5.23;;;9.80;99.90;;;;;;4858899;29;20490;-85
2023/01/05 03:50:36;;;;;;;17.67;5.23;;;9.70;99.90;;;;;;4865350;29;20047;-85
2023/01/05 03:53:03;;;;;;;24.43;5.53;;;9.70;99.90;;;;;;4876996;29;20056;-84
2023/01/05 03:55:29;;;;;;;25.50;5.53;;;9.70;99.90;;;;;;4866699;29;20061;-83
2023/01/05 03:57:54;;;;;;;27.03;5.77;;;9.70;99.90;;;;;;4858888;29;20049;-86
2023/01/05 04:00:21;;;;;;;20.97;5.13;;;9.70;99.90;;;;;;4840451;29;20045;-83
2023/01/05 04:02:46;;;;;;;16.00;5.43;;;9.70;99.90;;;;;;4868897;29;20049;-85
2023/01/05 04:05:12;;;;;;;17.17;4.63;;;9.70;99.90;;;;;;4871926;29;20040;-84
2023/01/05 04:07:38;;;;;;;25.43;5.20;;;9.70;99.90;;;;;;4862367;29;20136;-86
2023/01/05 04:10:04;;;;;;;28.47;6.37;;;9.70;99.90;;;;;;4878107;29;20519;-84
2023/01/05 04:12:30;;;;;;;20.10;5.03;;;9.70;99.90;;;;;;4867902;29;20041;-83
2023/01/05 04:14:56;;;;;;;23.27;5.20;;;9.80;99.90;;;;;;4875067;29;20048;-84
2023/01/05 04:17:22;;;;;;;23.03;4.93;;;9.80;99.90;;;;;;4847762;29;20041;-84
2023/01/05 04:19:47;;;;;;;25.93;5.30;;;9.80;99.90;;;;;;4850367;29;20127;-83
2023/01/05 04:22:13;;;;;;;20.77;4.60;;;9.80;99.90;;;;;;4874269;29;20045;-84
2023/01/05 04:24:39;;;;;;;20.93;5.13;;;9.80;99.90;;;;;;4853832;29;20060;-83
2023/01/05 04:27:05;;;;;;;20.93;5.60;;;9.90;99.90;;;;;;4867791;29;20037;-84
2023/01/05 04:29:30;;;;;;;23.07;5.70;;;9.80;99.90;;;;;;4854528;29;20071;-85
2023/01/05 04:31:56;;;;;;;23.00;4.87;;;9.90;99.90;;;;;;4836634;29;20128;-83
2023/01/05 04:34:22;;;;;;;20.57;5.50;;;9.90;99.90;;;;;;4852907;29;20128;-85
2023/01/05 04:36:48;;;;;;;23.93;4.77;;;9.90;99.90;;;;;;4862900;29;20051;-84
2023/01/05 04:39:14;;;;;;;19.97;5.20;;;9.90;99.90;;;;;;4868848;29;20056;-85
2023/01/05 04:41:40;;;;;;;23.97;6.00;;;9.90;99.90;;;;;;4866048;29;20508;-84
2023/01/05 04:44:06;;;;;;;25.87;5.33;;;9.90;99.90;;;;;;4869581;29;20046;-84
2023/01/05 04:46:32;;;;;;;18.40;5.57;;;9.90;99.90;;;;;;4875713;29;20064;-84
2023/01/05 04:48:57;;;;;;;22.70;5.27;;;9.90;99.90;;;;;;4858689;29;20151;-86
2023/01/05 04:51:24;;;;;;;19.23;5.00;;;9.90;99.90;;;;;;4860524;29;20785;-84
2023/01/05 04:53:50;;;;;;;23.53;5.37;;;9.90;99.90;;;;;;4858255;29;20049;-84
2023/01/05 04:56:15;;;;;;;21.93;5.63;;;9.90;99.90;;;;;;4874469;29;20127;-86
2023/01/05 04:58:41;;;;;;;21.33;5.17;;;9.90;99.90;;;;;;4860411;29;20072;-86
2023/01/05 05:01:07;;;;;;;19.87;4.50;;;9.90;99.90;;;;;;4876911;29;20049;-86
2023/01/05 05:03:33;;;;;;;17.63;5.00;;;9.90;99.90;;;;;;4871574;29;20048;-84
2023/01/05 05:05:59;;;;;;;24.90;5.83;;;9.90;99.90;;;;;;4858823;29;20054;-85
2023/01/05 05:08:25;;;;;;;24.00;5.53;;;10.00;99.90;;;;;;4846582;29;20056;-85
2023/01/05 05:10:51;;;;;;;24.67;4.80;;;9.90;99.90;;;;;;4859863;29;20069;-85
2023/01/05 05:13:16;;;;;;;16.00;4.73;;;9.90;99.90;;;;;;4877770;29;20063;-85
2023/01/05 05:15:44;;;;;;;18.37;4.67;;;10.00;99.90;;;;;;4861242;29;20441;-84
2023/01/05 05:18:10;;;;;;;14.47;4.20;;;9.90;99.90;;;;;;4856266;29;20041;-84
2023/01/05 05:20:39;;;;;;;19.67;4.40;;;10.00;99.90;;;;;;4864384;29;20053;-83
2023/01/05 05:23:05;;;;;;;19.90;4.63;;;10.00;99.90;;;;;;4880995;29;20489;-84
2023/01/05 05:25:30;;;;;;;16.13;4.40;;;10.00;99.90;;;;;;4862234;29;20118;-85
2023/01/05 05:27:56;;;;;;;20.30;4.70;;;10.00;99.90;;;;;;4857045;29;20045;-84
2023/01/05 05:30:22;;;;;;;21.40;4.63;;;10.00;99.90;;;;;;4875645;29;20545;-83
2023/01/05 05:32:48;;;;;;;19.23;4.47;;;10.00;99.90;;;;;;4869284;29;20074;-83
2023/01/05 05:35:14;;;;;;;15.97;4.57;;;10.00;99.90;;;;;;4853907;29;20052;-85
2023/01/05 05:37:40;;;;;;;17.33;4.37;;;10.00;99.90;;;;;;4858132;29;20052;-86
2023/01/05 05:40:06;;;;;;;17.60;4.40;;;10.00;99.90;;;;;;4852165;29;20067;-85
2023/01/05 05:42:32;;;;;;;17.03;4.57;;;9.90;99.90;;;;;;4869150;29;20053;-83
2023/01/05 05:44:57;;;;;;;22.33;4.63;;;10.00;99.90;;;;;;4873237;29;20050;-83
2023/01/05 05:47:23;;;;;;;18.27;4.63;;;10.00;99.90;;;;;;4854539;29;20049;-84
2023/01/05 05:49:49;;;;;;;16.70;4.43;;;10.00;99.90;;;;;;4874391;29;20076;-83
2023/01/05 05:52:14;;;;;;;22.77;4.83;;;10.00;99.90;;;;;;4862148;29;20043;-83
2023/01/05 05:54:40;;;;;;;15.33;4.60;;;10.00;99.90;;;;;;4867963;29;20055;-83
2023/01/05 05:57:06;;;;;;;20.57;4.80;;;10.00;99.90;;;;;;4874707;29;20038;-84
2023/01/05 05:59:32;;;;;;;17.63;4.60;;;10.00;99.90;;;;;;4860770;29;20052;-85
2023/01/05 06:01:57;;;;;;;24.77;4.90;;;10.00;99.90;;;;;;4863510;29;20078;-83
2023/01/05 06:04:23;;;;;;;20.93;5.37;;;10.00;99.90;;;;;;4879236;29;20045;-85
2023/01/05 06:06:49;;;;;;;23.60;4.53;;;10.00;99.90;;;;;;4863249;29;20053;-83
2023/01/05 06:09:15;;;;;;;20.87;4.53;;;10.00;99.90;;;;;;4878647;29;20041;-84
2023/01/05 06:11:42;;;;;;;20.17;5.10;;;10.00;99.90;;;;;;4866888;29;20057;-84
2023/01/05 06:14:07;;;;;;;15.10;4.50;;;10.00;99.90;;;;;;4869445;29;20040;-85
2023/01/05 06:16:33;;;;;;;19.90;5.07;;;10.00;99.90;;;;;;4878965;29;20760;-83
2023/01/05 06:18:59;;;;;;;19.43;5.30;;;10.00;99.90;;;;;;4873404;29;20045;-83
2023/01/05 06:21:25;;;;;;;19.77;5.07;;;10.00;99.90;;;;;;4862434;29;20047;-84
2023/01/05 06:23:51;;;;;;;22.27;5.40;;;10.00;99.90;;;;;;4866658;29;20079;-85
2023/01/05 06:26:16;;;;;;;21.50;4.97;;;10.00;99.90;;;;;;4871174;29;20131;-83
2023/01/05 06:28:42;;;;;;;20.93;4.60;;;10.00;99.90;;;;;;4868457;29;20048;-84
2023/01/05 06:31:08;;;;;;;17.77;4.50;;;10.00;99.90;;;;;;4872479;29;20037;-84
2023/01/05 06:33:33;;;;;;;20.60;4.97;;;10.00;99.90;;;;;;4867401;29;20110;-83
2023/01/05 06:35:59;;;;;;;19.33;4.80;;;10.00;99.90;;;;;;4860944;29;20049;-83
2023/01/05 06:38:25;;;;;;;25.80;5.63;;;10.00;99.90;;;;;;4867469;29;20084;-83
2023/01/05 06:40:51;;;;;;;18.37;4.20;;;9.90;99.90;;;;;;4869267;29;20049;-85
2023/01/05 06:43:17;;;;;;;20.73;4.70;;;10.00;99.90;;;;;;4871240;29;20129;-82
2023/01/05 06:45:43;;;;;;;23.37;5.10;;;9.90;99.90;;;;;;4857657;29;20064;-83
2023/01/05 06:48:09;;;;;;;21.17;5.20;;;9.90;99.90;;;;;;4848574;29;20494;-84
2023/01/05 06:50:35;;;;;;;18.50;5.00;;;9.80;99.90;;;;;;4861057;29;20105;-86
2023/01/05 06:53:01;;;;;;;18.47;4.83;;;9.80;99.90;;;;;;4866587;29;20041;-84
2023/01/05 06:55:27;;;;;;;16.93;4.67;;;9.70;99.90;;;;;;4874421;29;20096;-85
2023/01/05 06:57:53;;;;;;;18.57;4.93;;;9.70;99.90;;;;;;4866881;29;20053;-83
2023/01/05 07:00:19;;;;;;;21.33;5.10;;;9.70;99.90;;;;;;4863235;29;20060;-84
2023/01/05 07:02:44;;;;;;;17.37;4.87;;;9.70;99.90;;;;;;4863771;29;20089;-85
2023/01/05 07:05:10;;;;;;;21.90;5.23;;;9.60;99.90;;;;;;4865050;29;20533;-83
2023/01/05 07:07:36;;;;;;;23.53;5.73;;;9.60;99.90;;;;;;4867096;29;20045;-84
2023/01/05 07:10:03;;;;;;;19.43;5.87;;;9.60;99.90;;;;;;4876544;29;20049;-84
2023/01/05 07:12:28;;;;;;;18.87;5.73;;;9.60;99.90;;;;;;4842827;29;20045;-83
2023/01/05 07:14:54;;;;;;;25.83;6.13;;;9.60;99.90;;;;;;4861857;29;20110;-85
2023/01/05 07:17:20;;;;;;;22.90;6.37;;;9.60;99.90;;;;;;4879475;29;20045;-83
2023/01/05 07:19:46;;;;;;;23.10;5.33;;;9.60;99.90;;;;;;4862078;29;20060;-83
2023/01/05 07:22:11;;;;;;;15.57;4.33;;;9.60;99.90;;;;;;4867314;29;20057;-83
2023/01/05 07:24:37;;;;;;;23.03;5.20;;;9.60;99.90;;;;;;4857420;29;20295;-83
2023/01/05 07:27:03;;;;;;;22.23;5.00;;;9.60;99.90;;;;;;4859213;29;20486;-83
2023/01/05 07:29:29;;;;;;;20.20;5.33;;;9.60;99.90;;;;;;4868385;29;20076;-83
2023/01/05 07:31:54;;;;;;;19.73;5.10;;;9.60;99.90;;;;;;4870748;29;20049;-83
2023/01/05 07:34:21;;;;;;;21.23;4.70;;;9.60;99.90;;;;;;4853346;29;20142;-83
2023/01/05 07:36:47;;;;;;;22.87;5.30;;;9.60;99.90;;;;;;4861040;29;20385;-82
2023/01/05 07:39:13;;;;;;;17.47;4.97;;;9.60;99.90;;;;;;4851326;29;20434;-82
2023/01/05 07:41:39;;;;;;;21.30;4.90;;;9.60;99.90;;;;;;4869160;29;20045;-84
2023/01/05 07:44:06;;;;;;;20.33;5.33;;;9.60;99.90;;;;;;4831362;29;20521;-82
2023/01/05 07:46:32;;;;;;;23.00;5.40;;;9.60;99.90;;;;;;4868527;29;20061;-83
2023/01/05 07:49:10;;;;;;;22.73;7.57;;;9.60;99.90;;;;;;4864485;29;20053;-83
2023/01/05 07:51:45;;;;;;;20.87;4.60;;;9.60;99.90;;;;;;4850554;29;20505;-83
2023/01/05 07:54:14;;;;;;;20.77;5.20;;;9.60;99.90;;;;;;4825733;29;20552;-83
2023/01/05 07:56:40;;;;;;;19.13;4.87;;;9.60;99.90;;;;;;4846817;29;20073;-84
2023/01/05 07:59:08;;;;;;;20.20;4.60;;;9.60;99.90;;;;;;4845769;29;20134;-83
2023/01/05 08:02:06;;;;;;;20.03;5.37;;;9.60;99.90;;;;;;4848230;29;20124;-82
2023/01/05 08:04:39;;;;;;;21.07;4.90;;;9.60;99.90;;;;;;4824053;29;20120;-84
2023/01/05 08:07:10;;;;;;;22.43;5.23;;;9.70;99.90;;;;;;4868212;29;20072;-83
2023/01/05 08:12:30;;;;;;;20.73;5.10;;;9.70;99.90;;;;;;4864292;29;20449;-84
2023/01/05 08:14:59;;;;;;;19.00;4.47;;;9.70;99.90;;;;;;4848206;29;20049;-84
2023/01/05 08:17:39;;;;;;;19.93;5.43;;;9.70;99.90;;;;;;4855222;29;20130;-83
2023/01/05 08:20:15;;;;;;;21.43;4.30;;;9.70;99.90;;;;;;4832336;29;20502;-84
2023/01/05 08:22:40;;;;;;;28.07;5.40;;;9.70;99.90;;;;;;4847151;29;20877;-83
2023/01/05 08:25:09;;;;;;;20.70;4.77;;;9.70;99.90;;;;;;4840351;29;20048;-85
2023/01/05 08:27:40;;;;;;;17.77;4.50;;;9.70;99.90;;;;;;4848921;29;20044;-83
2023/01/05 08:30:10;;;;;;;26.17;5.20;;;9.70;99.90;;;;;;4842966;29;20049;-85
2023/01/05 08:32:36;;;;;;;21.13;4.60;;;9.70;99.90;;;;;;4854940;29;20041;-83
2023/01/05 08:35:02;;;;;;;22.13;4.30;;;9.80;99.90;;;;;;4856738;29;20182;-83
2023/01/05 08:37:33;;;;;;;20.63;4.13;;;9.80;99.90;;;;;;4849202;29;20520;-84
2023/01/05 08:40:04;;;;;;;14.57;4.20;;;9.80;99.90;;;;;;4853065;29;20501;-83
2023/01/05 08:42:30;;;;;;;19.97;4.50;;;9.80;99.90;;;;;;4842612;29;20730;-84
2023/01/05 08:45:02;;;;;;;15.43;3.80;;;9.80;99.90;;;;;;4848609;29;20040;-83
2023/01/05 08:47:28;;;;;;;16.98;4.32;;;9.80;99.90;;;;;;4831609;29;20402;-84
2023/01/05 08:49:54;;;;;;;19.90;5.67;;;9.80;99.90;;;;;;4840406;29;20041;-84
2023/01/05 08:52:31;;;;;;;22.25;5.53;;;9.80;99.90;;;;;;4848656;29;20077;-83
2023/01/05 08:54:57;;;;;;;22.00;4.40;;;9.80;99.90;;;;;;4866580;29;20052;-82
2023/01/05 08:57:33;;;;;;;16.90;4.37;;;9.80;99.90;;;;;;4857556;29;20053;-81
2023/01/05 09:00:21;;;;;;;;;;;;;;;;;;;;;
2023/01/05 09:02:50;;;;;;;20.93;4.33;;;9.80;99.90;;;;;;4838445;29;20552;-83
2023/01/05 09:05:16;;;;;;;23.07;5.20;;;9.80;99.90;;;;;;4855222;29;20132;-83
2023/01/05 09:07:50;;;;;;;21.00;5.10;;;9.90;99.90;;;;;;4846038;29;20037;-83
2023/01/05 09:10:56;;;;;;;15.20;3.37;;;9.90;99.90;;;;;;4845181;29;21181;-83
2023/01/05 09:13:38;;;;;;;18.57;5.20;;;9.90;99.90;;;;;;4778402;29;21251;-82
2023/01/05 09:16:35;;;;;;;16.45;3.97;;;9.90;99.90;;;;;;4781149;29;20062;-85
2023/01/05 09:19:03;;;;;;;17.47;4.30;;;9.90;99.90;;;;;;4777886;29;20050;-83
2023/01/05 09:21:29;;;;;;;18.97;4.30;;;9.80;99.90;;;;;;4822888;29;20057;-84
2023/01/05 09:23:55;;;;;;;17.03;3.90;;;9.90;99.90;;;;;;4845995;29;20057;-83
2023/01/05 09:26:20;;;;;;;12.63;3.70;;;9.90;99.90;;;;;;4842889;29;20108;-84
2023/01/05 09:28:46;;;;;;;18.10;3.90;;;9.90;99.90;;;;;;4849480;29;20049;-83
2023/01/05 09:31:15;;;;;;;16.57;4.23;;;9.90;99.90;;;;;;4876199;29;20057;-83
2023/01/05 09:33:41;;;;;;;15.67;4.13;;;9.90;99.90;;;;;;4859529;29;20142;-83
2023/01/05 09:36:09;;;;;;;18.10;4.97;;;9.90;99.90;;;;;;4862019;29;20042;-83
2023/01/05 09:38:35;;;;;;;17.17;4.40;;;9.90;99.90;;;;;;4866672;29;20105;-83
2023/01/05 09:41:22;;;;;;;16.03;4.27;;;9.90;99.90;;;;;;4862917;29;20400;-83
2023/01/05 09:43:51;;;;;;;20.33;4.27;;;9.90;99.90;;;;;;4847418;29;20037;-83
2023/01/05 09:46:25;;;;;;;20.47;4.47;;;10.00;99.90;;;;;;4865555;29;20429;-83
2023/01/05 09:48:54;;;;;;;19.07;4.37;;;10.00;99.90;;;;;;4859206;29;20068;-82
2023/01/05 09:51:21;;;;;;;16.33;4.27;;;10.00;99.90;;;;;;4851899;29;20097;-83
2023/01/05 09:53:47;;;;;;;18.83;4.67;;;10.00;99.90;;;;;;4855834;29;20442;-83
2023/01/05 09:56:29;;;;;;;18.27;4.50;;;10.00;99.90;;;;;;4864758;29;20565;-83
2023/01/05 09:59:14;;;;;;;20.13;5.10;;;10.00;99.90;;;;;;4860919;29;20049;-83
2023/01/05 10:01:41;;;;;;;19.43;5.00;;;10.00;99.90;;;;;;4853190;29;20577;-83
2023/01/05 10:04:14;;;;;;;19.43;4.70;;;10.00;99.90;;;;;;4866054;29;20045;-83
2023/01/05 10:06:44;;;;;;;16.73;4.03;;;10.00;99.90;;;;;;4863194;29;20052;-84
2023/01/05 10:09:17;;;;;;;17.73;3.90;;;10.10;99.90;;;;;;4877921;29;20045;-84
2023/01/05 10:14:51;;;;;;;16.17;4.03;;;10.10;99.90;;;;;;4876592;29;20052;-83
2023/01/05 10:17:19;;;;;;;17.33;4.37;;;10.10;99.90;;;;;;4864445;29;20083;-83
2023/01/05 10:19:46;;;;;;;16.50;3.93;;;10.10;99.90;;;;;;4868191;29;20553;-83
2023/01/05 10:22:50;;;;;;;13.27;4.20;;;10.10;99.90;;;;;;4865544;29;20049;-82
2023/01/05 10:25:20;;;;;;;19.80;4.10;;;10.10;99.90;;;;;;4854126;29;20493;-83
2023/01/05 10:28:01;;;;;;;15.40;4.27;;;10.10;99.90;;;;;;4844956;29;20486;-83
2023/01/05 10:30:44;;;;;;;17.13;3.67;;;10.20;99.90;;;;;;4849279;29;20089;-86
2023/01/05 10:33:23;;;;;;;14.07;3.70;;;10.10;99.90;;;;;;4860897;29;20418;-83
2023/01/05 10:36:20;;;;;;;20.03;4.37;;;10.10;99.90;;;;;;4861081;29;20056;-85
2023/01/05 10:39:06;;;;;;;19.13;4.20;;;10.10;99.90;;;;;;4849877;29;20488;-83
2023/01/05 10:41:57;;;;;;;17.43;4.07;;;10.10;99.90;;;;;;4871157;29;20084;-86
2023/01/05 10:44:44;;;;;;;17.00;4.07;;;10.10;99.90;;;;;;4862111;29;20100;-83
2023/01/05 10:47:12;;;;;;;21.20;4.97;;;10.10;99.90;;;;;;4861307;29;20053;-84
2023/01/05 10:49:44;;;;;;;12.53;3.87;;;10.10;99.90;;;;;;4855523;29;20044;-84
2023/01/05 10:52:14;;;;;;;;;;;10.10;99.90;;;;;;4872149;29;20132;-83
2023/01/05 10:54:52;;;;;;;14.80;3.70;;;10.00;99.90;;;;;;4867885;29;20376;-84
2023/01/05 10:57:27;;;;;;;18.00;4.10;;;10.10;99.90;;;;;;4867770;29;20140;-84
2023/01/05 10:59:58;;;;;;;17.10;3.93;;;10.10;99.90;;;;;;4867306;29;20045;-85
2023/01/05 11:02:27;;;;;;;13.60;4.20;;;10.20;99.90;;;;;;4853709;29;20053;-84
2023/01/05 11:04:55;;;;;;;15.57;4.47;;;10.20;99.90;;;;;;4860175;29;20383;-85
2023/01/05 11:07:21;;;;;;;14.90;3.70;;;10.20;99.90;;;;;;4871510;29;20502;-84
2023/01/05 11:09:47;;;;;;;14.80;3.63;;;10.20;99.90;;;;;;4867257;29;20060;-84
2023/01/05 11:12:19;;;;;;;13.10;3.33;;;10.20;99.90;;;;;;4877071;29;20043;-86
2023/01/05 11:14:50;;;;;;;15.88;3.55;;;10.30;99.90;;;;;;4874588;29;20045;-83
2023/01/05 11:17:20;;;;;;;13.88;4.03;;;10.30;99.90;;;;;;4861028;29;20113;-83
2023/01/05 11:19:50;;;;;;;10.50;2.90;;;10.30;99.90;;;;;;4873201;29;20057;-83
2023/01/05 11:22:36;;;;;;;10.93;2.93;;;10.30;99.90;;;;;;4853107;29;20053;-83
2023/01/05 11:25:26;;;;;;;18.83;3.37;;;10.30;99.90;;;;;;4855483;29;20490;-83
2023/01/05 11:28:12;;;;;;;10.17;2.63;;;10.30;99.90;;;;;;4877161;29;20041;-84
2023/01/05 11:31:00;;;;;;;12.33;3.17;;;10.30;99.90;;;;;;4888607;29;20041;-83
2023/01/05 11:33:29;;;;;;;13.20;2.60;;;10.30;99.90;;;;;;4869333;29;20056;-83
2023/01/05 11:35:56;;;;;;;8.87;2.40;;;10.30;99.90;;;;;;4853404;29;20458;-83
2023/01/05 11:38:26;;;;;;;8.93;2.60;;;10.30;99.90;;;;;;4859598;29;20393;-82
2023/01/05 11:40:52;;;;;;;10.50;3.13;;;10.30;99.90;;;;;;4855107;29;20132;-84
2023/01/05 11:43:20;;;;;;;12.67;2.80;;;10.30;99.90;;;;;;4853494;29;20093;-83
2023/01/05 11:45:52;;;;;;;11.83;2.57;;;10.30;99.90;;;;;;4876029;29;20041;-84
2023/01/05 11:48:25;;;;;;;10.17;2.83;;;10.40;99.90;;;;;;4871664;29;20065;-85
2023/01/05 11:50:55;;;;;;;11.27;2.77;;;10.40;99.90;;;;;;4865423;29;20049;-84
2023/01/05 11:53:32;;;;;;;11.83;3.13;;;10.40;99.90;;;;;;4875761;29;20045;-84
2023/01/05 11:56:04;;;;;;;12.47;2.70;;;10.40;99.90;;;;;;4870971;29;20053;-84
2023/01/05 11:58:32;;;;;;;;;;;10.40;99.90;;;;;;4873889;29;20425;-85
2023/01/05 12:01:43;;;;;;;8.97;2.40;;;10.30;99.90;;;;;;4858699;29;20017;-84
2023/01/05 12:04:33;;;;;;;12.17;3.10;;;10.30;99.90;;;;;;4858640;29;20061;-85
2023/01/05 12:07:17;;;;;;;8.57;2.33;;;10.30;99.90;;;;;;4861970;29;20136;-84
2023/01/05 12:09:54;;;;;;;12.60;2.60;;;10.30;99.90;;;;;;4867954;29;20112;-84
2023/01/05 12:12:32;;;;;;;14.97;2.63;;;10.30;99.90;;;;;;4845157;29;20048;-84
2023/01/05 12:15:16;;;;;;;8.67;2.57;;;10.30;99.90;;;;;;4876913;29;20048;-85
2023/01/05 12:17:42;;;;;;;10.03;2.90;;;10.30;99.90;;;;;;4876910;29;20497;-84
2023/01/05 12:20:46;;;;;;;13.27;2.83;;;10.40;99.90;;;;;;4876948;29;20080;-84
2023/01/05 12:23:36;;;;;;;11.00;3.00;;;10.40;99.90;;;;;;4824276;29;20409;-84
2023/01/05 12:26:24;;;;;;;8.67;2.70;;;10.50;99.90;;;;;;4866525;29;20145;-84
2023/01/05 12:29:20;;;;;;;10.87;3.37;;;10.50;99.90;;;;;;4852853;29;20040;-84
2023/01/05 12:32:25;;;;;;;16.17;3.10;;;10.50;99.90;;;;;;4880097;29;20049;-84
2023/01/05 12:35:19;;;;;;;16.00;3.20;;;10.50;99.90;;;;;;4851665;29;20045;-84
2023/01/05 12:38:18;;;;;;;19.37;3.57;;;10.50;99.90;;;;;;4862465;29;20057;-84
2023/01/05 12:41:04;;;;;;;19.93;4.00;;;10.50;99.90;;;;;;4863062;29;20120;-84
2023/01/05 12:43:38;;;;;;;13.20;3.40;;;10.50;99.90;;;;;;4862011;29;20553;-83
2023/01/05 12:46:56;;;;;;;10.70;3.20;;;10.40;99.90;;;;;;4865748;29;20504;-86
2023/01/05 12:49:34;;;;;;;10.97;3.50;;;10.50;99.90;;;;;;4844791;29;20721;-88
2023/01/05 12:52:12;;;;;;;13.40;3.47;;;10.50;99.90;;;;;;4871440;29;20421;-84
2023/01/05 12:54:55;;;;;;;13.17;3.57;;;10.50;99.90;;;;;;4859382;29;20056;-84
2023/01/05 12:57:39;;;;;;;15.77;4.30;;;10.50;99.90;;;;;;4843222;29;20057;-85
2023/01/05 13:00:13;;;;;;;13.90;3.50;;;10.50;99.90;;;;;;4859106;29;20045;-84
2023/01/05 13:03:04;;;;;;;14.13;3.50;;;10.50;99.90;;;;;;4864099;29;20124;-83
2023/01/05 13:05:52;;;;;;;13.30;2.97;;;10.50;99.90;;;;;;4853757;29;20063;-85
2023/01/05 13:08:26;;;;;;;14.40;3.87;;;10.40;99.90;;;;;;4861776;29;20469;-85
2023/01/05 13:11:05;;;;;;;15.70;3.30;;;10.40;99.90;;;;;;4866032;29;20049;-85
2023/01/05 13:13:38;;;;;;;16.90;4.13;;;10.40;99.90;;;;;;4865295;29;20045;-84
2023/01/05 13:16:07;;;;;;;11.33;3.90;;;10.40;99.90;;;;;;4872273;29;20045;-84
2023/01/05 13:18:38;;;;;;;11.30;3.87;;;10.40;99.90;;;;;;4870321;29;20133;-84
2023/01/05 13:21:05;;;;;;;12.47;4.40;;;10.40;99.90;;;;;;4861195;29;20684;-84
2023/01/05 13:23:45;;;;;;;17.17;4.37;;;10.30;99.90;;;;;;4877033;29;20113;-85
2023/01/05 13:26:14;;;;;;;14.33;3.90;;;10.30;99.90;;;;;;4876555;29;20520;-85
2023/01/05 13:28:41;;;;;;;17.23;4.63;;;10.30;99.90;;;;;;4845931;29;20038;-84
2023/01/05 13:31:13;;;;;;;17.90;4.50;;;10.20;99.90;;;;;;4859010;29;20044;-84
2023/01/05 13:34:01;;;;;;;15.23;4.20;;;10.20;99.90;;;;;;4844553;29;20115;-85
2023/01/05 13:37:08;;;;;;;14.67;3.87;;;10.20;99.90;;;;;;4870379;29;20045;-84
2023/01/05 13:39:43;;;;;;;15.27;4.00;;;10.20;99.90;;;;;;4833065;29;20202;-84
2023/01/05 13:42:35;;;;;;;13.03;4.40;;;10.20;99.90;;;;;;4856251;29;20132;-85